sensor_id;sensor_type;location;lat;lon;timestamp;temperature;humidity
2158;DHT22;41972;48.774;9.282;2022-11-02T00:00:25;7.70;99.90
2158;DHT22;41972;48.774;9.282;2022-11-02T00:02:52;7.60;99.90
2158;DHT22;41972;48.774;9.282;2022-11-02T00:05:17;7.70;99.90
2158;DHT22;41972;48.774;9.282;2022-11-02T00:07:48;7.70;99.90
2158;DHT22;41972;48.774;9.282;2022-11-02T00:10:14;7.70;99.90
2158;DHT22;41972;48.774;9.282;2022-11-02T00:12:40;7.90;99.90
2158;DHT22;41972;48.774;9.282;2022-11-02T00:15:07;7.80;99.90
2158;DHT22;41972;48.774;9.282;2022-11-02T00:17:33;7.80;99.90
2158;DHT22;41972;48.774;9.282;2022-11-02T00:20:00;7.90;99.90
2158;DHT22;41972;48.774;9.282;2022-11-02T00:22:26;7.80;99.90
2158;DHT22;41972;48.774;9.282;2022-11-02T00:24:52;7.70;99.90
2158;DHT22;41972;48.774;9.282;2022-11-02T00:27:24;7.70;99.90
2158;DHT22;41972;48.774;9.282;2022-11-02T00:29:49;7.70;99.90
2158;DHT22;41972;48.774;9.282;2022-11-02T00:32:15;7.70;99.90
2158;DHT22;41972;48.774;9.282;2022-11-02T00:34:41;7.70;99.90
2158;DHT22;41972;48.774;9.282;2022-11-02T00:37:06;7.60;99.90
2158;DHT22;41972;48.774;9.282;2022-11-02T00:39:32;7.60;99.90
2158;DHT22;41972;48.774;9.282;2022-11-02T00:41:57;7.60;99.90
2158;DHT22;41972;48.774;9.282;2022-11-02T00:44:23;7.70;99.90
2158;DHT22;41972;48.774;9.282;2022-11-02T00:46:48;7.80;99.90
2158;DHT22;41972;48.774;9.282;2022-11-02T00:49:14;8.00;99.90
2158;DHT22;41972;48.774;9.282;2022-11-02T00:51:39;8.00;99.90
2158;DHT22;41972;48.774;9.282;2022-11-02T00:54:05;8.00;99.90
2158;DHT22;41972;48.774;9.282;2022-11-02T00:56:30;7.90;99.90
2158;DHT22;41972;48.774;9.282;2022-11-02T00:58:56;8.00;99.90
2158;DHT22;41972;48.774;9.282;2022-11-02T01:01:22;8.00;99.90
2158;DHT22;41972;48.774;9.282;2022-11-02T01:03:47;8.10;99.90
2158;DHT22;41972;48.774;9.282;2022-11-02T01:06:14;8.10;99.90
2158;DHT22;41972;48.774;9.282;2022-11-02T01:08:40;7.90;99.90
2158;DHT22;41972;48.774;9.282;2022-11-02T01:11:17;7.80;99.90
2158;DHT22;41972;48.774;9.282;2022-11-02T01:13:43;7.80;99.90
2158;DHT22;41972;48.774;9.282;2022-11-02T01:16:10;7.80;99.90
2158;DHT22;41972;48.774;9.282;2022-11-02T01:18:36;7.90;99.90
2158;DHT22;41972;48.774;9.282;2022-11-02T01:21:01;7.80;99.90
2158;DHT22;41972;48.774;9.282;2022-11-02T01:23:30;7.80;99.90
2158;DHT22;41972;48.774;9.282;2022-11-02T01:25:56;7.70;99.90
2158;DHT22;41972;48.774;9.282;2022-11-02T01:28:22;7.70;99.90
2158;DHT22;41972;48.774;9.282;2022-11-02T01:30:47;7.50;99.90
2158;DHT22;41972;48.774;9.282;2022-11-02T01:33:13;7.50;99.90
2158;DHT22;41972;48.774;9.282;2022-11-02T01:35:39;7.60;99.90
2158;DHT22;41972;48.774;9.282;2022-11-02T01:38:04;7.50;99.90
2158;DHT22;41972;48.774;9.282;2022-11-02T01:40:39;7.60;99.90
2158;DHT22;41972;48.774;9.282;2022-11-02T01:43:27;7.50;99.90
2158;DHT22;41972;48.774;9.282;2022-11-02T01:45:59;7.70;99.90
2158;DHT22;41972;48.774;9.282;2022-11-02T01:48:42;7.70;99.90
2158;DHT22;41972;48.774;9.282;2022-11-02T01:51:11;7.80;99.90
2158;DHT22;41972;48.774;9.282;2022-11-02T01:53:42;7.90;99.90
2158;DHT22;41972;48.774;9.282;2022-11-02T01:56:11;7.90;99.90
2158;DHT22;41972;48.774;9.282;2022-11-02T01:58:37;7.80;99.90
2158;DHT22;41972;48.774;9.282;2022-11-02T02:01:03;7.80;99.90
2158;DHT22;41972;48.774;9.282;2022-11-02T02:03:30;7.70;99.90
2158;DHT22;41972;48.774;9.282;2022-11-02T02:06:00;7.70;99.90
2158;DHT22;41972;48.774;9.282;2022-11-02T02:08:27;7.70;99.90
2158;DHT22;41972;48.774;9.282;2022-11-02T02:10:57;7.80;99.90
2158;DHT22;41972;48.774;9.282;2022-11-02T02:13:26;7.80;99.90
2158;DHT22;41972;48.774;9.282;2022-11-02T02:18:50;7.90;99.90
2158;DHT22;41972;48.774;9.282;2022-11-02T02:27:46;8.20;99.90
2158;DHT22;41972;48.774;9.282;2022-11-02T02:30:08;8.30;99.90
2158;DHT22;41972;48.774;9.282;2022-11-02T02:32:56;8.30;99.90
2158;DHT22;41972;48.774;9.282;2022-11-02T02:35:31;8.20;99.90
2158;DHT22;41972;48.774;9.282;2022-11-02T02:38:01;8.20;99.90
2158;DHT22;41972;48.774;9.282;2022-11-02T02:40:38;8.20;99.90
2158;DHT22;41972;48.774;9.282;2022-11-02T02:43:11;8.10;99.90
2158;DHT22;41972;48.774;9.282;2022-11-02T02:45:43;8.10;99.90
2158;DHT22;41972;48.774;9.282;2022-11-02T02:48:10;8.30;99.90
2158;DHT22;41972;48.774;9.282;2022-11-02T02:50:42;8.30;99.90
2158;DHT22;41972;48.774;9.282;2022-11-02T02:53:11;8.30;99.90
2158;DHT22;41972;48.774;9.282;2022-11-02T02:55:42;8.30;99.90
2158;DHT22;41972;48.774;9.282;2022-11-02T02:58:14;8.30;99.90
2158;DHT22;41972;48.774;9.282;2022-11-02T03:00:42;8.30;99.90
2158;DHT22;41972;48.774;9.282;2022-11-02T03:03:19;8.20;99.90
2158;DHT22;41972;48.774;9.282;2022-11-02T03:08:22;8.30;99.90
2158;DHT22;41972;48.774;9.282;2022-11-02T03:10:57;8.30;99.90
2158;DHT22;41972;48.774;9.282;2022-11-02T03:13:39;8.50;99.90
2158;DHT22;41972;48.774;9.282;2022-11-02T03:16:26;8.50;99.90
2158;DHT22;41972;48.774;9.282;2022-11-02T03:19:19;8.60;99.90
2158;DHT22;41972;48.774;9.282;2022-11-02T03:21:58;8.50;99.90
2158;DHT22;41972;48.774;9.282;2022-11-02T03:24:45;8.50;99.90
2158;DHT22;41972;48.774;9.282;2022-11-02T03:35:23;8.60;99.90
2158;DHT22;41972;48.774;9.282;2022-11-02T03:37:59;8.50;99.90
2158;DHT22;41972;48.774;9.282;2022-11-02T03:40:28;8.50;99.90
2158;DHT22;41972;48.774;9.282;2022-11-02T03:42:56;8.50;99.90
2158;DHT22;41972;48.774;9.282;2022-11-02T03:45:26;8.50;99.90
2158;DHT22;41972;48.774;9.282;2022-11-02T03:48:00;8.50;99.90
2158;DHT22;41972;48.774;9.282;2022-11-02T03:50:28;8.50;99.90
2158;DHT22;41972;48.774;9.282;2022-11-02T03:52:57;8.40;99.90
2158;DHT22;41972;48.774;9.282;2022-11-02T03:55:29;8.50;99.90
2158;DHT22;41972;48.774;9.282;2022-11-02T03:57:56;8.50;99.90
2158;DHT22;41972;48.774;9.282;2022-11-02T04:00:24;8.50;99.90
2158;DHT22;41972;48.774;9.282;2022-11-02T04:02:56;8.50;99.90
2158;DHT22;41972;48.774;9.282;2022-11-02T04:05:34;8.60;99.90
2158;DHT22;41972;48.774;9.282;2022-11-02T04:08:00;8.60;99.90
2158;DHT22;41972;48.774;9.282;2022-11-02T04:10:45;8.60;99.90
2158;DHT22;41972;48.774;9.282;2022-11-02T04:13:29;8.60;99.90
2158;DHT22;41972;48.774;9.282;2022-11-02T04:16:14;8.70;99.90
2158;DHT22;41972;48.774;9.282;2022-11-02T04:18:42;8.70;99.90
2158;DHT22;41972;48.774;9.282;2022-11-02T04:21:26;8.80;99.90
2158;DHT22;41972;48.774;9.282;2022-11-02T04:23:52;8.80;99.90
2158;DHT22;41972;48.774;9.282;2022-11-02T04:26:36;8.80;99.90
2158;DHT22;41972;48.774;9.282;2022-11-02T04:29:02;8.80;99.90
2158;DHT22;41972;48.774;9.282;2022-11-02T04:31:28;8.80;99.90
2158;DHT22;41972;48.774;9.282;2022-11-02T04:33:53;8.70;99.90
2158;DHT22;41972;48.774;9.282;2022-11-02T04:36:19;8.70;99.90
2158;DHT22;41972;48.774;9.282;2022-11-02T04:38:45;8.70;99.90
2158;DHT22;41972;48.774;9.282;2022-11-02T04:41:19;8.60;99.90
2158;DHT22;41972;48.774;9.282;2022-11-02T04:44:04;8.60;99.90
2158;DHT22;41972;48.774;9.282;2022-11-02T04:46:32;8.50;99.90
2158;DHT22;41972;48.774;9.282;2022-11-02T04:48:58;8.50;99.90
2158;DHT22;41972;48.774;9.282;2022-11-02T04:51:25;8.40;99.90
2158;DHT22;41972;48.774;9.282;2022-11-02T04:53:53;8.40;99.90
2158;DHT22;41972;48.774;9.282;2022-11-02T04:56:19;8.20;99.90
2158;DHT22;41972;48.774;9.282;2022-11-02T04:58:52;8.20;99.90
2158;DHT22;41972;48.774;9.282;2022-11-02T05:01:18;8.10;99.90
2158;DHT22;41972;48.774;9.282;2022-11-02T05:03:48;8.00;99.90
2158;DHT22;41972;48.774;9.282;2022-11-02T05:06:16;7.90;99.90
2158;DHT22;41972;48.774;9.282;2022-11-02T05:08:41;7.80;99.90
2158;DHT22;41972;48.774;9.282;2022-11-02T05:11:08;7.70;99.90
2158;DHT22;41972;48.774;9.282;2022-11-02T05:13:35;7.70;99.90
2158;DHT22;41972;48.774;9.282;2022-11-02T05:16:01;7.70;99.90
2158;DHT22;41972;48.774;9.282;2022-11-02T05:18:27;7.70;99.90
2158;DHT22;41972;48.774;9.282;2022-11-02T05:20:55;7.70;99.90
2158;DHT22;41972;48.774;9.282;2022-11-02T05:23:22;7.70;99.90
2158;DHT22;41972;48.774;9.282;2022-11-02T05:25:55;7.60;99.90
2158;DHT22;41972;48.774;9.282;2022-11-02T05:28:21;7.50;99.90
2158;DHT22;41972;48.774;9.282;2022-11-02T05:30:47;7.70;99.90
2158;DHT22;41972;48.774;9.282;2022-11-02T05:33:13;7.70;99.90
2158;DHT22;41972;48.774;9.282;2022-11-02T05:35:38;7.70;99.90
2158;DHT22;41972;48.774;9.282;2022-11-02T05:38:04;7.80;99.90
2158;DHT22;41972;48.774;9.282;2022-11-02T05:40:30;7.80;99.90
2158;DHT22;41972;48.774;9.282;2022-11-02T05:42:59;7.80;99.90
2158;DHT22;41972;48.774;9.282;2022-11-02T05:45:25;7.80;99.90
2158;DHT22;41972;48.774;9.282;2022-11-02T05:47:51;7.90;99.90
2158;DHT22;41972;48.774;9.282;2022-11-02T05:50:16;7.80;99.90
2158;DHT22;41972;48.774;9.282;2022-11-02T05:52:42;7.80;99.90
2158;DHT22;41972;48.774;9.282;2022-11-02T05:55:08;7.80;99.90
2158;DHT22;41972;48.774;9.282;2022-11-02T05:57:33;7.70;99.90
2158;DHT22;41972;48.774;9.282;2022-11-02T05:59:59;7.70;99.90
2158;DHT22;41972;48.774;9.282;2022-11-02T06:02:25;7.70;99.90
2158;DHT22;41972;48.774;9.282;2022-11-02T06:04:50;7.70;99.90
2158;DHT22;41972;48.774;9.282;2022-11-02T06:07:16;7.60;99.90
2158;DHT22;41972;48.774;9.282;2022-11-02T06:09:41;7.60;99.90
2158;DHT22;41972;48.774;9.282;2022-11-02T06:12:07;7.60;99.90
2158;DHT22;41972;48.774;9.282;2022-11-02T06:14:33;7.70;99.90
2158;DHT22;41972;48.774;9.282;2022-11-02T06:16:58;7.80;99.90
2158;DHT22;41972;48.774;9.282;2022-11-02T06:19:24;7.80;99.90
2158;DHT22;41972;48.774;9.282;2022-11-02T06:21:49;7.90;99.90
2158;DHT22;41972;48.774;9.282;2022-11-02T06:24:16;8.00;99.90
2158;DHT22;41972;48.774;9.282;2022-11-02T06:26:42;8.10;99.90
2158;DHT22;41972;48.774;9.282;2022-11-02T06:29:07;8.10;99.90
2158;DHT22;41972;48.774;9.282;2022-11-02T06:31:33;8.30;99.90
2158;DHT22;41972;48.774;9.282;2022-11-02T06:33:59;8.40;99.90
2158;DHT22;41972;48.774;9.282;2022-11-02T06:36:25;8.50;99.90
2158;DHT22;41972;48.774;9.282;2022-11-02T06:38:50;8.50;99.90
2158;DHT22;41972;48.774;9.282;2022-11-02T06:41:16;8.60;99.90
2158;DHT22;41972;48.774;9.282;2022-11-02T06:43:41;8.70;99.90
2158;DHT22;41972;48.774;9.282;2022-11-02T06:46:07;8.70;99.90
2158;DHT22;41972;48.774;9.282;2022-11-02T06:48:33;8.90;99.90
2158;DHT22;41972;48.774;9.282;2022-11-02T06:50:59;9.10;99.90
2158;DHT22;41972;48.774;9.282;2022-11-02T06:53:25;9.20;99.90
2158;DHT22;41972;48.774;9.282;2022-11-02T06:55:52;9.40;99.90
2158;DHT22;41972;48.774;9.282;2022-11-02T06:58:18;9.50;99.90
2158;DHT22;41972;48.774;9.282;2022-11-02T07:00:44;9.60;99.90
2158;DHT22;41972;48.774;9.282;2022-11-02T07:03:09;9.70;99.90
2158;DHT22;41972;48.774;9.282;2022-11-02T07:05:35;9.80;99.90
2158;DHT22;41972;48.774;9.282;2022-11-02T07:08:02;10.10;99.90
2158;DHT22;41972;48.774;9.282;2022-11-02T07:10:28;10.30;99.90
2158;DHT22;41972;48.774;9.282;2022-11-02T07:12:54;10.30;99.90
2158;DHT22;41972;48.774;9.282;2022-11-02T07:15:22;10.40;99.90
2158;DHT22;41972;48.774;9.282;2022-11-02T07:17:47;10.50;99.90
2158;DHT22;41972;48.774;9.282;2022-11-02T07:20:13;10.60;99.90
2158;DHT22;41972;48.774;9.282;2022-11-02T07:22:39;10.70;99.90
2158;DHT22;41972;48.774;9.282;2022-11-02T07:25:05;10.90;99.90
2158;DHT22;41972;48.774;9.282;2022-11-02T07:27:36;11.00;99.90
2158;DHT22;41972;48.774;9.282;2022-11-02T07:30:02;11.20;99.90
2158;DHT22;41972;48.774;9.282;2022-11-02T07:32:28;11.30;99.90
2158;DHT22;41972;48.774;9.282;2022-11-02T07:34:53;11.40;99.90
2158;DHT22;41972;48.774;9.282;2022-11-02T07:37:19;11.40;99.90
2158;DHT22;41972;48.774;9.282;2022-11-02T07:39:44;11.70;99.90
2158;DHT22;41972;48.774;9.282;2022-11-02T07:42:10;12.20;99.90
2158;DHT22;41972;48.774;9.282;2022-11-02T07:44:36;12.40;99.90
2158;DHT22;41972;48.774;9.282;2022-11-02T07:47:04;12.80;99.90
2158;DHT22;41972;48.774;9.282;2022-11-02T07:49:29;13.30;99.90
2158;DHT22;41972;48.774;9.282;2022-11-02T07:51:55;13.30;99.90
2158;DHT22;41972;48.774;9.282;2022-11-02T07:54:21;13.70;99.90
2158;DHT22;41972;48.774;9.282;2022-11-02T07:56:46;13.80;99.90
2158;DHT22;41972;48.774;9.282;2022-11-02T07:59:12;13.60;99.90
2158;DHT22;41972;48.774;9.282;2022-11-02T08:01:37;13.70;99.90
2158;DHT22;41972;48.774;9.282;2022-11-02T08:04:03;14.00;99.90
2158;DHT22;41972;48.774;9.282;2022-11-02T08:06:29;13.40;99.90
2158;DHT22;41972;48.774;9.282;2022-11-02T08:08:54;13.70;99.90
2158;DHT22;41972;48.774;9.282;2022-11-02T08:11:20;14.10;99.90
2158;DHT22;41972;48.774;9.282;2022-11-02T08:13:45;14.30;99.90
2158;DHT22;41972;48.774;9.282;2022-11-02T08:16:11;14.60;99.90
2158;DHT22;41972;48.774;9.282;2022-11-02T08:18:36;14.80;99.90
2158;DHT22;41972;48.774;9.282;2022-11-02T08:21:02;15.20;99.90
2158;DHT22;41972;48.774;9.282;2022-11-02T08:23:28;15.80;99.90
2158;DHT22;41972;48.774;9.282;2022-11-02T08:25:57;15.60;99.90
2158;DHT22;41972;48.774;9.282;2022-11-02T08:28:26;15.50;99.90
2158;DHT22;41972;48.774;9.282;2022-11-02T08:30:52;16.20;99.90
2158;DHT22;41972;48.774;9.282;2022-11-02T08:33:18;16.50;99.90
2158;DHT22;41972;48.774;9.282;2022-11-02T08:35:45;16.60;99.90
2158;DHT22;41972;48.774;9.282;2022-11-02T08:38:11;16.20;99.90
2158;DHT22;41972;48.774;9.282;2022-11-02T08:40:37;16.60;99.90
2158;DHT22;41972;48.774;9.282;2022-11-02T08:43:13;16.30;99.90
2158;DHT22;41972;48.774;9.282;2022-11-02T08:45:41;17.10;99.90
2158;DHT22;41972;48.774;9.282;2022-11-02T08:48:07;17.20;99.90
2158;DHT22;41972;48.774;9.282;2022-11-02T08:50:33;17.50;99.90
2158;DHT22;41972;48.774;9.282;2022-11-02T08:52:59;17.90;99.90
2158;DHT22;41972;48.774;9.282;2022-11-02T08:55:25;17.40;99.90
2158;DHT22;41972;48.774;9.282;2022-11-02T08:57:53;17.50;99.90
2158;DHT22;41972;48.774;9.282;2022-11-02T09:00:21;17.60;99.90
2158;DHT22;41972;48.774;9.282;2022-11-02T09:02:58;16.80;99.90
2158;DHT22;41972;48.774;9.282;2022-11-02T09:05:25;16.70;99.90
2158;DHT22;41972;48.774;9.282;2022-11-02T09:07:56;17.00;99.90
2158;DHT22;41972;48.774;9.282;2022-11-02T09:10:22;16.80;99.90
2158;DHT22;41972;48.774;9.282;2022-11-02T09:12:47;17.10;99.90
2158;DHT22;41972;48.774;9.282;2022-11-02T09:15:13;17.80;99.90
2158;DHT22;41972;48.774;9.282;2022-11-02T09:17:38;18.50;99.90
2158;DHT22;41972;48.774;9.282;2022-11-02T09:20:04;18.90;99.90
2158;DHT22;41972;48.774;9.282;2022-11-02T09:22:30;18.70;99.90
2158;DHT22;41972;48.774;9.282;2022-11-02T09:24:55;17.60;99.90
2158;DHT22;41972;48.774;9.282;2022-11-02T09:27:21;16.40;99.90
2158;DHT22;41972;48.774;9.282;2022-11-02T09:29:47;15.50;99.90
2158;DHT22;41972;48.774;9.282;2022-11-02T09:32:12;15.50;99.90
2158;DHT22;41972;48.774;9.282;2022-11-02T09:34:38;15.70;99.90
2158;DHT22;41972;48.774;9.282;2022-11-02T09:37:04;15.90;99.90
2158;DHT22;41972;48.774;9.282;2022-11-02T09:39:30;16.00;99.90
2158;DHT22;41972;48.774;9.282;2022-11-02T09:45:03;16.10;99.90
2158;DHT22;41972;48.774;9.282;2022-11-02T09:47:31;16.00;99.90
2158;DHT22;41972;48.774;9.282;2022-11-02T09:50:01;16.20;99.90
2158;DHT22;41972;48.774;9.282;2022-11-02T09:52:37;16.50;99.90
2158;DHT22;41972;48.774;9.282;2022-11-02T09:55:10;16.60;99.90
2158;DHT22;41972;48.774;9.282;2022-11-02T09:57:38;16.40;99.90
2158;DHT22;41972;48.774;9.282;2022-11-02T10:00:07;16.70;99.90
2158;DHT22;41972;48.774;9.282;2022-11-02T10:02:59;16.90;99.90
2158;DHT22;41972;48.774;9.282;2022-11-02T10:05:40;16.20;99.90
2158;DHT22;41972;48.774;9.282;2022-11-02T10:08:37;15.80;99.90
2158;DHT22;41972;48.774;9.282;2022-11-02T10:14:19;15.10;99.90
2158;DHT22;41972;48.774;9.282;2022-11-02T10:19:37;14.90;99.90
2158;DHT22;41972;48.774;9.282;2022-11-02T10:22:04;15.20;99.90
2158;DHT22;41972;48.774;9.282;2022-11-02T10:24:45;15.10;99.90
2158;DHT22;41972;48.774;9.282;2022-11-02T10:27:24;14.80;99.90
2158;DHT22;41972;48.774;9.282;2022-11-02T10:30:03;15.30;99.90
2158;DHT22;41972;48.774;9.282;2022-11-02T10:32:31;15.70;99.90
2158;DHT22;41972;48.774;9.282;2022-11-02T10:35:02;16.00;99.90
2158;DHT22;41972;48.774;9.282;2022-11-02T10:37:58;15.90;99.90
2158;DHT22;41972;48.774;9.282;2022-11-02T10:51:58;15.90;99.90
2158;DHT22;41972;48.774;9.282;2022-11-02T10:54:24;16.20;99.90
2158;DHT22;41972;48.774;9.282;2022-11-02T10:56:51;16.20;99.90
2158;DHT22;41972;48.774;9.282;2022-11-02T10:59:21;15.90;99.90
2158;DHT22;41972;48.774;9.282;2022-11-02T11:04:24;16.30;99.90
2158;DHT22;41972;48.774;9.282;2022-11-02T11:06:50;16.20;99.90
2158;DHT22;41972;48.774;9.282;2022-11-02T11:09:25;16.20;99.90
2158;DHT22;41972;48.774;9.282;2022-11-02T11:12:02;15.80;99.90
2158;DHT22;41972;48.774;9.282;2022-11-02T11:14:31;15.80;99.90
2158;DHT22;41972;48.774;9.282;2022-11-02T11:17:01;15.90;99.90
2158;DHT22;41972;48.774;9.282;2022-11-02T11:19:40;15.70;99.90
2158;DHT22;41972;48.774;9.282;2022-11-02T11:22:26;15.60;99.90
2158;DHT22;41972;48.774;9.282;2022-11-02T11:27:50;15.50;99.90
2158;DHT22;41972;48.774;9.282;2022-11-02T11:30:33;15.70;99.90
2158;DHT22;41972;48.774;9.282;2022-11-02T11:33:01;15.60;99.90
2158;DHT22;41972;48.774;9.282;2022-11-02T11:35:34;15.60;99.90
2158;DHT22;41972;48.774;9.282;2022-11-02T11:38:04;15.80;99.90
2158;DHT22;41972;48.774;9.282;2022-11-02T11:40:37;15.80;99.90
2158;DHT22;41972;48.774;9.282;2022-11-02T11:43:08;15.60;99.90
2158;DHT22;41972;48.774;9.282;2022-11-02T11:45:35;15.50;99.90
2158;DHT22;41972;48.774;9.282;2022-11-02T11:50:51;15.10;99.90
2158;DHT22;41972;48.774;9.282;2022-11-02T11:53:22;15.10;99.90
2158;DHT22;41972;48.774;9.282;2022-11-02T11:55:53;15.50;99.90
2158;DHT22;41972;48.774;9.282;2022-11-02T11:58:21;15.70;99.90
2158;DHT22;41972;48.774;9.282;2022-11-02T12:03:54;15.60;99.90
2158;DHT22;41972;48.774;9.282;2022-11-02T12:11:38;15.00;99.90
2158;DHT22;41972;48.774;9.282;2022-11-02T12:16:49;15.10;99.90
2158;DHT22;41972;48.774;9.282;2022-11-02T12:24:46;15.50;99.90
2158;DHT22;41972;48.774;9.282;2022-11-02T12:27:34;16.00;99.90
2158;DHT22;41972;48.774;9.282;2022-11-02T12:30:16;16.00;99.90
2158;DHT22;41972;48.774;9.282;2022-11-02T12:35:35;15.70;99.90
2158;DHT22;41972;48.774;9.282;2022-11-02T12:41:06;15.20;99.90
2158;DHT22;41972;48.774;9.282;2022-11-02T12:43:49;15.00;99.90
2158;DHT22;41972;48.774;9.282;2022-11-02T12:51:46;15.10;99.90
2158;DHT22;41972;48.774;9.282;2022-11-02T12:54:23;15.20;99.90
2158;DHT22;41972;48.774;9.282;2022-11-02T12:56:52;15.40;99.90
2158;DHT22;41972;48.774;9.282;2022-11-02T12:59:22;15.30;99.90
2158;DHT22;41972;48.774;9.282;2022-11-02T13:01:56;15.20;99.90
2158;DHT22;41972;48.774;9.282;2022-11-02T13:07:00;15.20;99.90
2158;DHT22;41972;48.774;9.282;2022-11-02T13:09:33;15.30;99.90
2158;DHT22;41972;48.774;9.282;2022-11-02T13:12:04;15.30;99.90
2158;DHT22;41972;48.774;9.282;2022-11-02T13:14:42;15.50;99.90
2158;DHT22;41972;48.774;9.282;2022-11-02T13:17:19;15.50;99.90
2158;DHT22;41972;48.774;9.282;2022-11-02T13:19:50;15.60;99.90
2158;DHT22;41972;48.774;9.282;2022-11-02T13:22:20;15.50;99.90
2158;DHT22;41972;48.774;9.282;2022-11-02T13:24:49;15.40;99.90
2158;DHT22;41972;48.774;9.282;2022-11-02T13:27:30;15.30;99.90
2158;DHT22;41972;48.774;9.282;2022-11-02T13:30:01;15.40;99.90
2158;DHT22;41972;48.774;9.282;2022-11-02T13:32:31;15.40;99.90
2158;DHT22;41972;48.774;9.282;2022-11-02T13:34:58;15.20;99.90
2158;DHT22;41972;48.774;9.282;2022-11-02T13:37:33;15.00;99.90
2158;DHT22;41972;48.774;9.282;2022-11-02T13:40:05;15.10;99.90
2158;DHT22;41972;48.774;9.282;2022-11-02T13:45:40;15.10;99.90
2158;DHT22;41972;48.774;9.282;2022-11-02T13:48:38;15.00;99.90
2158;DHT22;41972;48.774;9.282;2022-11-02T13:51:12;14.90;99.90
2158;DHT22;41972;48.774;9.282;2022-11-02T13:53:50;14.80;99.90
2158;DHT22;41972;48.774;9.282;2022-11-02T13:56:22;14.70;99.90
2158;DHT22;41972;48.774;9.282;2022-11-02T13:58:57;14.50;99.90
2158;DHT22;41972;48.774;9.282;2022-11-02T14:01:23;14.50;99.90
2158;DHT22;41972;48.774;9.282;2022-11-02T14:03:55;14.60;99.90
2158;DHT22;41972;48.774;9.282;2022-11-02T14:06:23;14.70;99.90
2158;DHT22;41972;48.774;9.282;2022-11-02T14:09:01;14.80;99.90
2158;DHT22;41972;48.774;9.282;2022-11-02T14:11:34;14.80;99.90
2158;DHT22;41972;48.774;9.282;2022-11-02T14:29:53;14.40;99.90
2158;DHT22;41972;48.774;9.282;2022-11-02T14:38:22;14.60;99.90
2158;DHT22;41972;48.774;9.282;2022-11-02T14:49:24;14.00;99.90
2158;DHT22;41972;48.774;9.282;2022-11-02T14:54:22;13.90;99.90
2158;DHT22;41972;48.774;9.282;2022-11-02T14:59:39;13.90;99.90
2158;DHT22;41972;48.774;9.282;2022-11-02T15:02:28;13.80;99.90
2158;DHT22;41972;48.774;9.282;2022-11-02T15:04:56;13.70;99.90
2158;DHT22;41972;48.774;9.282;2022-11-02T15:07:41;13.80;99.90
2158;DHT22;41972;48.774;9.282;2022-11-02T15:12:43;13.70;99.90
2158;DHT22;41972;48.774;9.282;2022-11-02T15:15:33;13.60;99.90
2158;DHT22;41972;48.774;9.282;2022-11-02T15:18:31;13.60;99.90
2158;DHT22;41972;48.774;9.282;2022-11-02T15:26:23;13.30;99.90
2158;DHT22;41972;48.774;9.282;2022-11-02T15:28:50;13.20;99.90
2158;DHT22;41972;48.774;9.282;2022-11-02T15:31:19;12.70;99.90
2158;DHT22;41972;48.774;9.282;2022-11-02T15:33:48;12.40;99.90
2158;DHT22;41972;48.774;9.282;2022-11-02T15:36:34;12.20;99.90
2158;DHT22;41972;48.774;9.282;2022-11-02T15:39:02;11.80;99.90
2158;DHT22;41972;48.774;9.282;2022-11-02T15:41:38;11.60;99.90
2158;DHT22;41972;48.774;9.282;2022-11-02T15:44:35;11.50;99.90
2158;DHT22;41972;48.774;9.282;2022-11-02T15:52:45;11.10;99.90
2158;DHT22;41972;48.774;9.282;2022-11-02T16:00:35;10.60;99.90
2158;DHT22;41972;48.774;9.282;2022-11-02T16:03:05;10.60;99.90
2158;DHT22;41972;48.774;9.282;2022-11-02T16:05:41;10.60;99.90
2158;DHT22;41972;48.774;9.282;2022-11-02T16:10:46;10.30;99.90
2158;DHT22;41972;48.774;9.282;2022-11-02T16:13:17;10.10;99.90
2158;DHT22;41972;48.774;9.282;2022-11-02T16:15:43;10.10;99.90
2158;DHT22;41972;48.774;9.282;2022-11-02T16:18:27;10.10;99.90
2158;DHT22;41972;48.774;9.282;2022-11-02T16:20:55;10.10;99.90
2158;DHT22;41972;48.774;9.282;2022-11-02T16:23:24;10.00;99.90
2158;DHT22;41972;48.774;9.282;2022-11-02T16:25:53;9.80;99.90
2158;DHT22;41972;48.774;9.282;2022-11-02T16:28:28;9.60;99.90
2158;DHT22;41972;48.774;9.282;2022-11-02T16:31:13;9.50;99.90
2158;DHT22;41972;48.774;9.282;2022-11-02T16:33:53;9.40;99.90
2158;DHT22;41972;48.774;9.282;2022-11-02T16:38:57;9.40;99.90
2158;DHT22;41972;48.774;9.282;2022-11-02T16:41:30;9.40;99.90
2158;DHT22;41972;48.774;9.282;2022-11-02T16:44:00;9.30;99.90
2158;DHT22;41972;48.774;9.282;2022-11-02T16:46:29;9.40;99.90
2158;DHT22;41972;48.774;9.282;2022-11-02T16:49:16;9.40;99.90
2158;DHT22;41972;48.774;9.282;2022-11-02T16:51:51;9.10;99.90
2158;DHT22;41972;48.774;9.282;2022-11-02T16:54:24;9.20;99.90
2158;DHT22;41972;48.774;9.282;2022-11-02T16:56:52;9.20;99.90
2158;DHT22;41972;48.774;9.282;2022-11-02T16:59:18;9.20;99.90
2158;DHT22;41972;48.774;9.282;2022-11-02T17:01:46;9.30;99.90
2158;DHT22;41972;48.774;9.282;2022-11-02T17:04:32;8.80;99.90
2158;DHT22;41972;48.774;9.282;2022-11-02T17:07:22;8.80;99.90
2158;DHT22;41972;48.774;9.282;2022-11-02T17:09:51;8.80;99.90
2158;DHT22;41972;48.774;9.282;2022-11-02T17:12:19;8.80;99.90
2158;DHT22;41972;48.774;9.282;2022-11-02T17:14:48;8.90;99.90
2158;DHT22;41972;48.774;9.282;2022-11-02T17:19:55;8.90;99.90
2158;DHT22;41972;48.774;9.282;2022-11-02T17:22:30;8.90;99.90
2158;DHT22;41972;48.774;9.282;2022-11-02T17:25:38;9.00;99.90
2158;DHT22;41972;48.774;9.282;2022-11-02T17:30:59;8.60;99.90
2158;DHT22;41972;48.774;9.282;2022-11-02T17:33:25;8.60;99.90
2158;DHT22;41972;48.774;9.282;2022-11-02T17:35:54;8.60;99.90
2158;DHT22;41972;48.774;9.282;2022-11-02T17:38:24;8.20;99.90
2158;DHT22;41972;48.774;9.282;2022-11-02T17:40:50;8.30;99.90
2158;DHT22;41972;48.774;9.282;2022-11-02T17:43:20;8.40;99.90
2158;DHT22;41972;48.774;9.282;2022-11-02T17:46:01;8.30;99.90
2158;DHT22;41972;48.774;9.282;2022-11-02T17:48:27;8.30;99.90
2158;DHT22;41972;48.774;9.282;2022-11-02T17:50:54;8.40;99.90
2158;DHT22;41972;48.774;9.282;2022-11-02T17:53:20;8.30;99.90
2158;DHT22;41972;48.774;9.282;2022-11-02T17:55:46;8.30;99.90
2158;DHT22;41972;48.774;9.282;2022-11-02T17:58:11;8.40;99.90
2158;DHT22;41972;48.774;9.282;2022-11-02T18:00:38;8.30;99.90
2158;DHT22;41972;48.774;9.282;2022-11-02T18:03:14;8.30;99.90
2158;DHT22;41972;48.774;9.282;2022-11-02T18:05:41;8.20;99.90
2158;DHT22;41972;48.774;9.282;2022-11-02T18:08:08;8.10;99.90
2158;DHT22;41972;48.774;9.282;2022-11-02T18:10:39;8.00;99.90
2158;DHT22;41972;48.774;9.282;2022-11-02T18:13:06;7.80;99.90
2158;DHT22;41972;48.774;9.282;2022-11-02T18:15:32;7.70;99.90
2158;DHT22;41972;48.774;9.282;2022-11-02T18:17:58;7.70;99.90
2158;DHT22;41972;48.774;9.282;2022-11-02T18:20:26;7.70;99.90
2158;DHT22;41972;48.774;9.282;2022-11-02T18:22:53;7.70;99.90
2158;DHT22;41972;48.774;9.282;2022-11-02T18:25:19;7.70;99.90
2158;DHT22;41972;48.774;9.282;2022-11-02T18:27:45;7.50;99.90
2158;DHT22;41972;48.774;9.282;2022-11-02T18:30:13;7.50;99.90
2158;DHT22;41972;48.774;9.282;2022-11-02T18:32:40;7.50;99.90
2158;DHT22;41972;48.774;9.282;2022-11-02T18:35:08;7.50;99.90
2158;DHT22;41972;48.774;9.282;2022-11-02T18:37:38;7.50;99.90
2158;DHT22;41972;48.774;9.282;2022-11-02T18:40:05;7.30;99.90